Eglin Air Force Base
KVPS : now visible

Airfield :











YOU CAN JOIN US ON...

 
LOGIN :

Register | Disclaimer

   EN    FR    IT 

 









Legend :    VFR   Marginal VFR   IFR   Intensive IFR   Very Intensive IFR
Visi :
Ceiling :
>= 8 km
>= 3000ft
5 to 8 km
1000 to 3000 ft
1500m to 5 km
500 to 1000 ft
800 to 1500m
200 to 500 ft
< 800m
< 200 ft
Symbols :   Thunderstorms  Fog  Heavy snow  Heavy precipitations  Wind > 20 kt






- Airport Elevation : 87 ft
- IATA code : VPS


KVPS - Eglin Air Force Base

CURRENT METAR :
  • 121641Z AUTO 29005KT 10SM SCT024 26/20 A3006 RMK AO2 SLP186 $

EXPIRED METARs :
  • 121616Z AUTO 00000KT 10SM BKN023 25/20 A3007 RMK AO2 CIG 023V120 BKN V SCT SLP189 $
  • 121611Z AUTO 00000KT 10SM SCT020 BKN025 24/20 A3007 RMK AO2 CIG 025V120 BKN V SCT SLP189 $
  • 121456Z AUTO 36004KT 10SM BKN029 BKN035 22/20 A3007 RMK AO2 LTG DSNT SE CIG 028 RWY01 CIG 028 RWY30 SLP189 60067 T02170198 52014 $
  • 121421Z AUTO 36004KT 10SM SCT024 OVC037 21/20 A3006 RMK AO2 LTG DSNT SE SLP186 $
  • 121356Z AUTO 36003KT 10SM BKN024 BKN140 20/19 A3005 RMK AO2 LTG DSNT SE-S RAE16DZB16E21 TSE07 SLP182 P0002 T02010193 $

TAF AMD TAF KVPS
Valid from the 12 at 13:00 until the 13 at 15:00 UTC


121320Z 1213/1315 03009KT 9999 VCSH VCTS SCT028CB BKN050 BKN140 QNH3000INS
TEMPO 1213/1214 24020G25KT 8000 -TSRA BKN018CB BKN028
BECMG 1214/1215 35009KT 9999 VCSH SCT028 BKN050 QNH3004INS
BECMG 1216/1217 35009KT 9999 NSW SCT035 BKN085
BECMG 1302/1303 04012KT 8000 -SHRA BKN018 QNH3008INS
BECMG 1311/1312 05012KT 4800 BR OVC005 QNH3015INS TX25/1217Z TN15/1309Z
KZJX FIR / North America



MET'MAP, your aeronautical weather chart ! - Copyright ORBIFLY December 2007 - Disclaimer

ORBIFLY MET'MAP TEAM :

Programming & Development : Alexandra Zaïnal
Concept & original design : Baudouin d'Aumeries
Assistance for programming : Marc-Olivier Méhu
Technical & hardware support : Manuel Goepfert

Contact : metmap@orbifly.com




SOURCES & CREDITS :

   NOAA       Earth
Advisory